Time;durP1;ratioP1;P1;durP2;ratioP2;P2;SDS_P1;SDS_P2;PMS_P1;PMS_P2;Temp;Humidity;BMP_temperature;BMP_pressure;BME280_temperature;BME280_humidity;BME280_pressure;Samples;Min_cycle;Max_cycle;Signal;HPM_P1;HPM_P2
2022/04/16 00:01:49;;;;;;;4.00;3.60;;;7.30;99.90;;;;;;5075441;28;20660;-74
2022/04/16 00:04:16;;;;;;;4.03;3.47;;;7.30;99.90;;;;;;5075798;28;20254;-74
2022/04/16 00:06:45;;;;;;;4.10;3.47;;;7.40;99.90;;;;;;5075526;28;20386;-75
2022/04/16 00:09:11;;;;;;;4.00;3.60;;;7.50;99.90;;;;;;5075463;28;20197;-75
2022/04/16 00:11:38;;;;;;;4.80;3.90;;;7.50;99.90;;;;;;5075353;28;20269;-75
2022/04/16 00:14:05;;;;;;;5.53;3.90;;;7.50;99.90;;;;;;5075138;28;20311;-75
2022/04/16 00:16:32;;;;;;;5.13;3.77;;;7.40;99.90;;;;;;5075422;28;20197;-74
2022/04/16 00:18:59;;;;;;;4.07;3.67;;;7.30;99.90;;;;;;5075170;28;20649;-74
2022/04/16 00:21:26;;;;;;;4.43;3.70;;;7.40;99.90;;;;;;5074974;28;20229;-75
2022/04/16 00:23:54;;;;;;;3.73;3.40;;;7.30;99.90;;;;;;5075214;28;20201;-75
2022/04/16 00:26:21;;;;;;;4.03;3.60;;;7.20;99.90;;;;;;5075076;28;20201;-76
2022/04/16 00:28:49;;;;;;;5.30;3.77;;;7.40;99.90;;;;;;5074921;28;20193;-75
2022/04/16 00:31:16;;;;;;;3.70;3.40;;;7.50;99.90;;;;;;5074897;28;20660;-74
2022/04/16 00:33:42;;;;;;;4.30;3.90;;;7.60;99.90;;;;;;5074378;28;20221;-75
2022/04/16 00:36:09;;;;;;;3.93;3.53;;;7.60;99.90;;;;;;5074748;28;20211;-75
2022/04/16 00:38:36;;;;;;;3.83;3.47;;;7.70;99.90;;;;;;5074614;28;20196;-75
2022/04/16 00:41:04;;;;;;;4.43;3.80;;;7.80;99.90;;;;;;5074722;28;20205;-75
2022/04/16 00:43:31;;;;;;;4.73;4.10;;;7.80;99.90;;;;;;5074841;28;20208;-76
2022/04/16 00:45:58;;;;;;;5.23;4.13;;;7.80;99.90;;;;;;5074794;28;20219;-75
2022/04/16 00:48:26;;;;;;;6.53;4.20;;;7.90;99.90;;;;;;5074496;28;20664;-75
2022/04/16 00:50:54;;;;;;;4.67;3.90;;;8.00;99.90;;;;;;5074472;28;20646;-75
2022/04/16 00:53:21;;;;;;;4.83;4.20;;;8.00;99.90;;;;;;5074335;28;20263;-75
2022/04/16 00:55:49;;;;;;;5.87;4.17;;;8.00;99.90;;;;;;5074427;28;20250;-73
2022/04/16 00:58:16;;;;;;;3.90;3.60;;;8.10;99.90;;;;;;5074595;28;20195;-72
2022/04/16 01:00:43;;;;;;;4.30;3.90;;;8.20;99.90;;;;;;5074420;28;20205;-75
2022/04/16 01:03:10;;;;;;;5.43;4.87;;;8.30;99.90;;;;;;5074367;28;20204;-74
2022/04/16 01:05:37;;;;;;;4.70;4.17;;;8.30;99.90;;;;;;5074184;28;20602;-75
2022/04/16 01:08:05;;;;;;;4.83;4.33;;;8.30;99.90;;;;;;5073961;28;20587;-74
2022/04/16 01:10:34;;;;;;;4.73;4.23;;;8.40;99.90;;;;;;5073974;28;20200;-74
2022/04/16 01:13:02;;;;;;;4.83;4.17;;;8.50;99.90;;;;;;5073810;28;20289;-75
2022/04/16 01:15:31;;;;;;;5.83;4.60;;;8.50;99.90;;;;;;5074070;28;20225;-75
2022/04/16 01:18:02;;;;;;;4.80;4.30;;;8.50;99.90;;;;;;5074010;28;20628;-75
2022/04/16 01:20:29;;;;;;;5.63;4.37;;;8.60;99.90;;;;;;5073942;28;20204;-75
2022/04/16 01:22:58;;;;;;;4.90;4.40;;;8.60;99.90;;;;;;5073526;28;20235;-75
2022/04/16 01:25:27;;;;;;;5.00;4.50;;;8.60;99.90;;;;;;5073729;28;20735;-75
2022/04/16 01:27:53;;;;;;;4.90;4.40;;;8.60;99.90;;;;;;5073707;28;20205;-75
2022/04/16 01:30:23;;;;;;;5.70;5.13;;;8.70;99.90;;;;;;5073751;28;20201;-73
2022/04/16 01:32:49;;;;;;;4.70;4.20;;;8.60;99.90;;;;;;5073873;28;20557;-73
2022/04/16 01:35:17;;;;;;;5.20;4.70;;;8.70;99.90;;;;;;5073381;28;20220;-73
2022/04/16 01:37:44;;;;;;;5.93;5.00;;;8.60;99.90;;;;;;5073454;28;20197;-72
2022/04/16 01:40:15;;;;;;;4.80;4.23;;;8.70;99.90;;;;;;5073618;28;20246;-73
2022/04/16 01:42:43;;;;;;;5.57;4.90;;;8.70;99.90;;;;;;5073514;28;20200;-74
2022/04/16 01:45:11;;;;;;;5.60;4.90;;;8.70;99.90;;;;;;5072624;28;20205;-73
2022/04/16 01:47:39;;;;;;;5.17;4.63;;;8.70;99.90;;;;;;5073247;28;20204;-73
2022/04/16 01:50:07;;;;;;;4.80;4.30;;;8.70;99.90;;;;;;5073475;28;20201;-74
2022/04/16 01:52:36;;;;;;;5.13;4.63;;;8.70;99.90;;;;;;5073708;28;20197;-73
2022/04/16 01:55:03;;;;;;;5.00;4.37;;;8.70;99.90;;;;;;5073285;28;20225;-73
2022/04/16 01:57:31;;;;;;;4.87;4.40;;;8.70;99.90;;;;;;5073378;28;20197;-73
2022/04/16 01:59:57;;;;;;;4.73;4.30;;;8.70;99.90;;;;;;5073159;28;20352;-74
2022/04/16 02:02:24;;;;;;;5.23;4.47;;;8.60;99.90;;;;;;5072839;28;20560;-73
2022/04/16 02:04:51;;;;;;;5.33;4.33;;;8.60;99.90;;;;;;5072873;28;20197;-74
2022/04/16 02:07:18;;;;;;;4.47;4.03;;;8.60;99.90;;;;;;5073242;28;20197;-73
2022/04/16 02:09:45;;;;;;;5.03;4.40;;;8.70;99.90;;;;;;5072878;28;20201;-74
2022/04/16 02:12:13;;;;;;;4.27;3.87;;;8.70;99.90;;;;;;5072726;28;20529;-74
2022/04/16 02:14:41;;;;;;;5.50;4.80;;;8.70;99.90;;;;;;5072735;28;20684;-73
2022/04/16 02:17:07;;;;;;;4.83;4.10;;;8.70;99.90;;;;;;5073217;28;20254;-74
2022/04/16 02:19:36;;;;;;;5.27;4.40;;;8.70;99.90;;;;;;5072961;28;20198;-74
2022/04/16 02:22:03;;;;;;;5.00;4.40;;;8.70;99.90;;;;;;5072863;28;20299;-74
2022/04/16 02:24:30;;;;;;;4.37;3.93;;;8.70;99.90;;;;;;5072874;28;20192;-73
2022/04/16 02:26:58;;;;;;;5.70;4.20;;;8.60;99.90;;;;;;5072885;28;20629;-74
2022/04/16 02:29:25;;;;;;;5.17;4.57;;;8.70;99.90;;;;;;5072699;28;20197;-74
2022/04/16 02:31:53;;;;;;;5.50;4.73;;;8.70;99.90;;;;;;5072704;28;20656;-74
2022/04/16 02:34:20;;;;;;;5.33;4.80;;;8.70;99.90;;;;;;5072758;28;20220;-74
2022/04/16 02:36:47;;;;;;;5.90;5.30;;;8.70;99.90;;;;;;5072811;28;20560;-75
2022/04/16 02:39:14;;;;;;;6.70;5.53;;;8.70;99.90;;;;;;5072750;28;20223;-74
2022/04/16 02:41:41;;;;;;;6.17;5.40;;;8.70;99.90;;;;;;5072690;28;20204;-74
2022/04/16 02:47:04;;;;;;;6.17;5.53;;;8.60;99.90;;;;;;5072679;28;20251;-75
2022/04/16 02:47:08;;;;;;;7.60;5.20;;;8.60;99.90;;;;;;5072584;28;20203;-75
2022/04/16 02:49:36;;;;;;;5.60;5.00;;;8.60;99.90;;;;;;5072752;28;20228;-74
2022/04/16 02:52:02;;;;;;;10.90;5.57;;;8.60;99.90;;;;;;5072518;28;20207;-74
2022/04/16 02:54:29;;;;;;;6.30;5.70;;;8.60;99.90;;;;;;5072246;28;20784;-73
2022/04/16 02:56:56;;;;;;;6.23;5.23;;;8.50;99.90;;;;;;5076298;28;20227;-73
2022/04/16 02:59:23;;;;;;;7.60;6.63;;;8.50;99.90;;;;;;5076708;28;20208;-74
2022/04/16 03:01:49;;;;;;;8.20;6.73;;;8.50;99.90;;;;;;5076587;28;20210;-74
2022/04/16 03:04:18;;;;;;;8.03;7.00;;;8.50;99.90;;;;;;5076855;28;20201;-74
2022/04/16 03:06:44;;;;;;;8.23;6.90;;;8.40;99.90;;;;;;5076342;28;20678;-74
2022/04/16 03:09:11;;;;;;;7.73;6.67;;;8.40;99.90;;;;;;5076455;28;20193;-73
2022/04/16 03:11:38;;;;;;;10.97;8.17;;;8.40;99.90;;;;;;5076662;28;20197;-74
2022/04/16 03:19:30;;;;;;;9.33;7.63;;;8.40;99.90;;;;;;5076504;28;20196;-74
2022/04/16 03:21:57;;;;;;;9.70;7.57;;;8.50;99.90;;;;;;5076236;28;20565;-74
2022/04/16 03:24:23;;;;;;;9.40;7.93;;;8.40;99.90;;;;;;5076353;28;20197;-75
2022/04/16 03:26:50;;;;;;;9.23;8.07;;;8.40;99.90;;;;;;5076125;28;20658;-73
2022/04/16 03:29:17;;;;;;;11.87;8.67;;;8.50;99.90;;;;;;5076102;28;20253;-74
2022/04/16 03:31:43;;;;;;;9.27;8.07;;;8.50;99.90;;;;;;5076046;28;20254;-74
2022/04/16 03:34:10;;;;;;;8.97;8.07;;;8.50;99.90;;;;;;5075625;28;20553;-74
2022/04/16 03:36:38;;;;;;;9.47;8.17;;;8.40;99.90;;;;;;5076137;28;20243;-74
2022/04/16 03:39:05;;;;;;;10.20;8.67;;;8.40;99.90;;;;;;5076092;28;20236;-74
2022/04/16 03:41:31;;;;;;;9.30;8.00;;;8.40;99.90;;;;;;5075868;28;20258;-74
2022/04/16 03:43:58;;;;;;;8.83;7.93;;;8.40;99.90;;;;;;5075931;28;20262;-74
2022/04/16 03:46:24;;;;;;;9.07;7.93;;;8.40;99.90;;;;;;5075845;28;20564;-74
2022/04/16 03:48:51;;;;;;;11.33;8.90;;;8.40;99.90;;;;;;5076051;28;20231;-74
2022/04/16 03:51:18;;;;;;;8.73;7.57;;;8.40;99.90;;;;;;5075633;28;20656;-74
2022/04/16 03:53:45;;;;;;;9.97;8.43;;;8.40;99.90;;;;;;5075676;28;20247;-73
2022/04/16 04:01:40;;;;;;;9.23;8.23;;;8.40;99.90;;;;;;5075715;28;20196;-73
2022/04/16 04:04:07;;;;;;;10.20;8.83;;;8.40;99.90;;;;;;5075585;28;20254;-74
2022/04/16 04:06:33;;;;;;;9.37;8.30;;;8.40;99.90;;;;;;5075002;28;20204;-74
2022/04/16 04:09:01;;;;;;;11.13;8.90;;;8.30;99.90;;;;;;5075171;28;20197;-74
2022/04/16 04:11:28;;;;;;;10.67;8.37;;;8.30;99.90;;;;;;5075361;28;20204;-74
2022/04/16 04:13:55;;;;;;;11.03;8.60;;;8.30;99.90;;;;;;5075564;28;20201;-74
2022/04/16 04:16:22;;;;;;;10.07;8.37;;;8.30;99.90;;;;;;5075391;28;20588;-74
2022/04/16 04:18:49;;;;;;;10.30;8.97;;;8.30;99.90;;;;;;5075431;28;20284;-75
2022/04/16 04:21:16;;;;;;;10.70;8.60;;;8.30;99.90;;;;;;5075214;28;20193;-74
2022/04/16 04:23:42;;;;;;;11.83;9.93;;;8.30;99.90;;;;;;5075406;28;20203;-75
2022/04/16 04:26:10;;;;;;;10.57;8.90;;;8.30;99.90;;;;;;5075077;28;20197;-74
2022/04/16 04:28:37;;;;;;;12.30;9.70;;;8.30;99.90;;;;;;5075265;28;20197;-73
2022/04/16 04:31:04;;;;;;;11.30;9.20;;;8.30;99.90;;;;;;5075068;28;20205;-74
2022/04/16 04:33:33;;;;;;;10.17;9.07;;;8.30;99.90;;;;;;5074920;28;20233;-74
2022/04/16 04:35:59;;;;;;;10.90;9.63;;;8.30;99.90;;;;;;5074744;28;20226;-73
2022/04/16 04:38:26;;;;;;;10.43;9.33;;;8.30;99.90;;;;;;5074657;28;20255;-74
2022/04/16 04:40:53;;;;;;;12.10;9.27;;;8.30;99.90;;;;;;5074676;28;20201;-74
2022/04/16 04:43:21;;;;;;;10.53;8.93;;;8.30;99.90;;;;;;5074837;28;20201;-73
2022/04/16 04:45:48;;;;;;;10.97;9.40;;;8.40;99.90;;;;;;5074685;28;20249;-74
2022/04/16 04:48:14;;;;;;;11.43;9.50;;;8.30;99.90;;;;;;5074862;28;20208;-74
2022/04/16 04:50:41;;;;;;;10.77;8.83;;;8.30;99.90;;;;;;5074531;28;20200;-74
2022/04/16 04:53:08;;;;;;;11.03;9.20;;;8.30;99.90;;;;;;5074287;28;20196;-73
2022/04/16 04:55:34;;;;;;;11.27;9.03;;;8.40;99.90;;;;;;5074466;28;20224;-74
2022/04/16 04:58:01;;;;;;;9.97;8.67;;;8.40;99.90;;;;;;5074437;28;20251;-74
2022/04/16 05:00:29;;;;;;;10.87;8.73;;;8.40;99.90;;;;;;5074398;28;20203;-74
2022/04/16 05:02:56;;;;;;;9.40;8.40;;;8.40;99.90;;;;;;5074206;28;20193;-74
2022/04/16 05:05:22;;;;;;;9.37;8.37;;;8.40;99.90;;;;;;5074132;28;20197;-74
2022/04/16 05:07:49;;;;;;;9.77;8.77;;;8.40;99.90;;;;;;5074037;28;20196;-74
2022/04/16 05:10:16;;;;;;;10.27;8.73;;;8.50;99.90;;;;;;5074008;28;20652;-74
2022/04/16 05:12:42;;;;;;;12.23;10.23;;;8.40;99.90;;;;;;5074147;28;20204;-73
2022/04/16 05:15:09;;;;;;;10.40;9.23;;;8.40;99.90;;;;;;5073849;28;20221;-74
2022/04/16 05:17:38;;;;;;;11.70;9.57;;;8.40;99.90;;;;;;5073849;28;20656;-73
2022/04/16 05:20:07;;;;;;;10.50;9.40;;;8.30;99.90;;;;;;5073821;28;20201;-74
2022/04/16 05:22:34;;;;;;;10.73;9.60;;;8.30;99.90;;;;;;5073900;28;20228;-74
2022/04/16 05:25:00;;;;;;;11.20;9.53;;;8.30;99.90;;;;;;5074003;28;20200;-75
2022/04/16 05:27:30;;;;;;;12.00;9.67;;;8.30;99.90;;;;;;5073831;28;20196;-74
2022/04/16 05:30:06;;;;;;;12.13;10.07;;;8.20;99.90;;;;;;5073665;28;20192;-74
2022/04/16 05:32:35;;;;;;;11.37;10.17;;;8.20;99.90;;;;;;5073714;28;20239;-74
2022/04/16 05:35:04;;;;;;;12.23;10.37;;;8.20;99.90;;;;;;5073679;28;20316;-74
2022/04/16 05:37:31;;;;;;;13.00;10.47;;;8.20;99.90;;;;;;5073702;28;20247;-74
2022/04/16 05:39:57;;;;;;;14.10;10.80;;;8.20;99.90;;;;;;5073477;28;20656;-74
2022/04/16 05:42:24;;;;;;;14.27;10.97;;;8.10;99.90;;;;;;5073627;28;20198;-74
2022/04/16 05:44:51;;;;;;;13.60;11.47;;;8.10;99.90;;;;;;5073297;28;20199;-74
2022/04/16 05:47:17;;;;;;;14.47;12.07;;;8.10;99.90;;;;;;5073552;28;20709;-73
2022/04/16 05:49:44;;;;;;;14.83;12.27;;;8.10;99.90;;;;;;5073489;28;20384;-74
2022/04/16 05:52:12;;;;;;;12.70;11.40;;;8.10;99.90;;;;;;5073534;28;20568;-74
2022/04/16 05:54:39;;;;;;;14.50;12.27;;;8.10;99.90;;;;;;5073107;28;20714;-74
2022/04/16 05:57:07;;;;;;;15.57;12.67;;;8.10;99.90;;;;;;5073332;28;20614;-74
2022/04/16 05:59:35;;;;;;;14.90;11.90;;;8.20;99.90;;;;;;5073466;28;20197;-74
2022/04/16 06:02:01;;;;;;;14.80;12.13;;;8.20;99.90;;;;;;5073130;28;20231;-74
2022/04/16 06:04:28;;;;;;;14.63;13.03;;;8.20;99.90;;;;;;5073144;28;20199;-74
2022/04/16 06:06:55;;;;;;;15.80;12.73;;;8.10;99.90;;;;;;5073187;28;20246;-74
2022/04/16 06:09:23;;;;;;;16.23;12.47;;;8.20;99.90;;;;;;5073035;28;20722;-75
2022/04/16 06:11:51;;;;;;;15.77;13.00;;;8.10;99.90;;;;;;5073007;28;20274;-74
2022/04/16 06:14:18;;;;;;;18.23;13.97;;;8.10;99.90;;;;;;5073009;28;20627;-73
2022/04/16 06:16:45;;;;;;;14.90;12.63;;;8.20;99.90;;;;;;5072864;28;20263;-74
2022/04/16 06:19:11;;;;;;;16.80;12.40;;;8.30;99.90;;;;;;5073136;28;20664;-74
2022/04/16 06:21:38;;;;;;;17.17;14.03;;;8.30;99.90;;;;;;5072955;28;20227;-74
2022/04/16 06:24:05;;;;;;;16.93;13.60;;;8.40;99.90;;;;;;5072915;28;20258;-74
2022/04/16 06:26:33;;;;;;;14.93;12.53;;;8.40;99.90;;;;;;5072978;28;20254;-74
2022/04/16 06:28:59;;;;;;;15.07;11.93;;;8.20;99.90;;;;;;5072779;28;20196;-74
2022/04/16 06:31:26;;;;;;;12.27;10.80;;;8.20;99.90;;;;;;5072596;28;20205;-74
2022/04/16 06:33:53;;;;;;;14.03;10.70;;;8.20;99.90;;;;;;5072605;28;20717;-74
2022/04/16 06:36:19;;;;;;;13.00;10.50;;;8.30;99.90;;;;;;5072955;28;20221;-74
2022/04/16 06:38:46;;;;;;;13.07;10.17;;;8.30;99.90;;;;;;5072746;28;20867;-74
2022/04/16 06:41:13;;;;;;;11.83;9.30;;;8.20;99.90;;;;;;5072902;28;20196;-74
2022/04/16 06:43:41;;;;;;;14.53;10.63;;;8.30;99.90;;;;;;5072576;28;20197;-74
2022/04/16 06:46:07;;;;;;;13.67;10.13;;;8.30;99.90;;;;;;5072726;28;20197;-73
2022/04/16 06:48:34;;;;;;;14.17;9.70;;;8.40;99.90;;;;;;5072798;28;20247;-74
2022/04/16 06:51:00;;;;;;;12.67;10.03;;;8.60;99.90;;;;;;5072724;28;20254;-75
2022/04/16 06:53:27;;;;;;;12.30;10.03;;;8.60;99.90;;;;;;5072582;28;20368;-74
2022/04/16 06:55:54;;;;;;;14.40;10.03;;;8.60;99.90;;;;;;5072357;28;20221;-74
2022/04/16 06:58:21;;;;;;;13.20;10.60;;;8.50;99.90;;;;;;5072321;28;20197;-74
2022/04/16 07:00:49;;;;;;;13.93;10.60;;;8.60;99.90;;;;;;5072424;28;20254;-74
2022/04/16 07:03:15;;;;;;;14.63;11.23;;;8.70;99.90;;;;;;5072473;28;20193;-75
2022/04/16 07:05:42;;;;;;;12.93;11.03;;;8.70;99.90;;;;;;5072409;28;20205;-74
2022/04/16 07:08:09;;;;;;;12.53;10.70;;;8.90;99.90;;;;;;5072529;28;20201;-74
2022/04/16 07:10:36;;;;;;;15.93;12.27;;;9.20;99.90;;;;;;5072354;28;20201;-74
2022/04/16 07:13:02;;;;;;;14.80;11.30;;;9.40;99.90;;;;;;5072625;28;20266;-75
2022/04/16 07:15:29;;;;;;;12.67;10.33;;;9.50;99.90;;;;;;5072419;28;20217;-74
2022/04/16 07:17:57;;;;;;;11.77;10.50;;;9.40;99.90;;;;;;5072341;28;20197;-74
2022/04/16 07:20:24;;;;;;;13.53;11.03;;;9.50;99.90;;;;;;5072387;28;20204;-74
2022/04/16 07:22:51;;;;;;;15.63;11.30;;;9.50;99.90;;;;;;5072190;28;20252;-74
2022/04/16 07:25:17;;;;;;;14.27;11.87;;;9.60;99.90;;;;;;5072247;28;20250;-74
2022/04/16 07:27:44;;;;;;;16.03;12.23;;;9.70;99.90;;;;;;5072514;28;20255;-75
2022/04/16 07:30:11;;;;;;;16.43;13.50;;;9.70;99.90;;;;;;5072278;28;20730;-74
2022/04/16 07:32:39;;;;;;;16.37;12.77;;;9.80;99.90;;;;;;5072284;28;20197;-74
2022/04/16 07:35:07;;;;;;;15.23;12.13;;;10.00;99.90;;;;;;5072255;28;20223;-76
2022/04/16 07:37:34;;;;;;;16.07;12.50;;;10.40;99.90;;;;;;5071944;28;20197;-75
2022/04/16 07:40:01;;;;;;;16.13;12.83;;;10.50;99.90;;;;;;5072250;28;20205;-74
2022/04/16 07:42:28;;;;;;;14.90;12.67;;;10.30;99.90;;;;;;5073081;28;20201;-74
2022/04/16 07:44:54;;;;;;;16.53;13.60;;;10.30;99.90;;;;;;5075989;28;20201;-75
2022/04/16 07:47:21;;;;;;;14.83;12.63;;;10.50;99.90;;;;;;5075806;28;20208;-74
2022/04/16 07:49:48;;;;;;;15.63;13.73;;;10.60;99.90;;;;;;5075778;28;20197;-74
2022/04/16 07:52:16;;;;;;;16.40;14.20;;;10.50;99.90;;;;;;5075595;28;20205;-75
2022/04/16 07:54:43;;;;;;;19.07;14.57;;;10.40;99.90;;;;;;5075908;28;20193;-75
2022/04/16 07:57:10;;;;;;;16.93;14.37;;;10.60;99.90;;;;;;5075509;28;20708;-74
2022/04/16 07:59:36;;;;;;;17.47;14.37;;;10.50;99.90;;;;;;5075700;28;20609;-75
2022/04/16 08:02:03;;;;;;;16.60;13.80;;;10.50;99.90;;;;;;5075571;28;20205;-74
2022/04/16 08:04:30;;;;;;;17.97;14.93;;;10.50;99.90;;;;;;5075394;28;20204;-74
2022/04/16 08:06:57;;;;;;;19.30;15.23;;;10.60;99.90;;;;;;5075271;28;20721;-74
2022/04/16 08:09:25;;;;;;;15.60;13.63;;;10.50;99.90;;;;;;5075501;28;20201;-74
2022/04/16 08:11:51;;;;;;;16.47;14.50;;;10.60;99.90;;;;;;5075223;28;20676;-74
2022/04/16 08:14:20;;;;;;;17.90;14.67;;;10.40;99.90;;;;;;5075298;28;20204;-74
2022/04/16 08:16:47;;;;;;;19.13;14.43;;;10.20;99.90;;;;;;5075036;28;20224;-74
2022/04/16 08:19:13;;;;;;;17.13;13.53;;;10.20;99.90;;;;;;5075132;28;20201;-74
2022/04/16 08:21:40;;;;;;;19.17;14.20;;;10.20;99.90;;;;;;5074930;28;20306;-74
2022/04/16 08:24:22;;;;;;;14.17;12.00;;;10.30;99.90;;;;;;5074973;28;20560;-74
2022/04/16 08:26:50;;;;;;;15.10;12.23;;;10.10;99.90;;;;;;5075003;28;20652;-74
2022/04/16 08:29:17;;;;;;;12.97;11.00;;;10.10;99.90;;;;;;5075108;28;20242;-75
2022/04/16 08:31:44;;;;;;;13.80;11.03;;;10.00;99.90;;;;;;5074876;28;20288;-74
2022/04/16 08:34:10;;;;;;;14.10;10.43;;;9.90;99.90;;;;;;5074863;28;20201;-74
2022/04/16 08:36:37;;;;;;;12.50;9.73;;;9.70;99.90;;;;;;5074959;28;20255;-74
2022/04/16 08:39:04;;;;;;;11.03;9.37;;;9.60;99.90;;;;;;5074811;28;20197;-74
2022/04/16 08:41:32;;;;;;;12.83;9.73;;;9.80;99.90;;;;;;5074579;28;20201;-74
2022/04/16 08:44:00;;;;;;;12.40;9.50;;;10.10;99.90;;;;;;5074745;28;20246;-75
2022/04/16 08:46:29;;;;;;;10.57;9.10;;;10.20;99.90;;;;;;5074442;28;20250;-74
2022/04/16 08:48:58;;;;;;;11.93;9.00;;;10.50;99.90;;;;;;5074623;28;20207;-74
2022/04/16 08:51:26;;;;;;;9.50;8.50;;;10.40;99.90;;;;;;5074629;28;20201;-75
2022/04/16 08:53:53;;;;;;;10.30;9.20;;;10.50;99.90;;;;;;5074216;28;20223;-74
2022/04/16 08:56:20;;;;;;;10.17;8.23;;;10.60;99.90;;;;;;5074044;28;20212;-74
2022/04/16 08:58:46;;;;;;;9.47;8.13;;;10.40;99.90;;;;;;5074205;28;20213;-75
2022/04/16 09:01:16;;;;;;;10.80;8.77;;;10.30;99.90;;;;;;5074033;28;20193;-74
2022/04/16 09:03:42;;;;;;;8.77;7.83;;;10.30;99.90;;;;;;5074292;28;20196;-74
2022/04/16 09:06:09;;;;;;;9.50;8.03;;;10.50;99.90;;;;;;5074090;28;20548;-75
2022/04/16 09:08:36;;;;;;;8.13;6.90;;;10.60;99.90;;;;;;5074024;28;20196;-74
2022/04/16 09:11:07;;;;;;;8.83;7.77;;;10.80;99.90;;;;;;5074110;28;20197;-74
2022/04/16 09:13:34;;;;;;;9.30;7.73;;;10.60;99.90;;;;;;5073837;28;20537;-74
2022/04/16 09:16:05;;;;;;;9.63;8.63;;;11.00;99.90;;;;;;5073796;28;20545;-74
2022/04/16 09:18:44;;;;;;;10.50;8.80;;;10.60;99.90;;;;;;5074125;28;20201;-74
2022/04/16 09:21:13;;;;;;;9.47;7.80;;;10.30;99.90;;;;;;5073806;28;20273;-74
2022/04/16 09:23:47;;;;;;;10.60;8.73;;;10.40;99.90;;;;;;5073600;28;20713;-74
2022/04/16 09:26:14;;;;;;;10.33;9.03;;;10.60;99.90;;;;;;5073767;28;20668;-75
2022/04/16 09:28:44;;;;;;;9.73;8.73;;;10.20;99.90;;;;;;5073734;28;20668;-73
2022/04/16 09:31:12;;;;;;;10.87;9.03;;;9.70;99.90;;;;;;5073937;28;20201;-73
2022/04/16 09:33:41;;;;;;;12.87;9.20;;;10.00;99.90;;;;;;5073854;28;20235;-74
2022/04/16 09:36:07;;;;;;;10.23;8.83;;;10.30;99.90;;;;;;5073489;28;20229;-75
2022/04/16 09:38:35;;;;;;;9.63;8.57;;;10.70;99.90;;;;;;5073619;28;20197;-74
2022/04/16 09:41:05;;;;;;;10.40;8.80;;;11.50;99.90;;;;;;5073550;28;20722;-74
2022/04/16 09:43:35;;;;;;;10.00;8.57;;;11.60;99.90;;;;;;5073898;28;20219;-75
2022/04/16 09:46:10;;;;;;;9.20;8.20;;;11.80;99.90;;;;;;5073387;28;20197;-75
2022/04/16 09:48:38;;;;;;;8.90;7.83;;;12.00;99.90;;;;;;5073568;28;20204;-75
2022/04/16 09:51:06;;;;;;;9.17;8.27;;;12.80;99.40;;;;;;5073629;28;20231;-75
2022/04/16 09:53:37;;;;;;;10.27;7.83;;;13.50;95.40;;;;;;5073837;28;20616;-75
2022/04/16 09:56:09;;;;;;;9.60;8.60;;;13.80;89.60;;;;;;5073518;28;20714;-74
2022/04/16 09:58:39;;;;;;;9.13;8.23;;;13.50;84.40;;;;;;5073346;28;20197;-74
2022/04/16 10:01:06;;;;;;;8.15;7.30;;;14.10;81.00;;;;;;5073789;28;20200;-75
2022/04/16 10:03:33;;;;;;;8.40;7.55;;;15.10;68.50;;;;;;5073150;28;20255;-74
2022/04/16 10:06:00;;;;;;;9.87;7.67;;;14.00;61.90;;;;;;5072840;28;20624;-75
2022/04/16 10:08:28;;;;;;;9.43;8.43;;;12.50;71.10;;;;;;5073376;28;20607;-74
2022/04/16 10:10:57;;;;;;;8.68;7.57;;;13.50;68.60;;;;;;5073591;28;20202;-75
2022/04/16 10:13:25;;;;;;;8.50;7.63;;;14.00;64.80;;;;;;5074214;28;20212;-75
2022/04/16 10:16:04;;;;;;;8.95;8.05;;;13.30;63.80;;;;;;5074242;28;20309;-75
2022/04/16 10:18:34;;;;;;;8.23;7.40;;;12.00;67.30;;;;;;5073322;28;20287;-75
2022/04/16 10:21:02;;;;;;;8.13;7.32;;;12.20;70.20;;;;;;5073222;28;20196;-74
2022/04/16 10:23:31;;;;;;;10.35;7.85;;;12.20;67.50;;;;;;5072978;28;20594;-75
2022/04/16 10:26:04;;;;;;;8.00;7.20;;;13.60;67.30;;;;;;5072927;28;20203;-74
2022/04/16 10:28:39;;;;;;;9.35;7.05;;;14.80;58.20;;;;;;5072623;28;20648;-74
2022/04/16 10:31:07;;;;;;;6.85;6.25;;;13.60;53.20;;;;;;5073296;28;20250;-74
2022/04/16 10:33:33;;;;;;;8.65;6.93;;;12.40;55.90;;;;;;5073173;28;20246;-75
2022/04/16 10:36:03;;;;;;;6.93;6.25;;;13.50;55.40;;;;;;5072870;28;20193;-75
2022/04/16 10:38:37;;;;;;;7.43;6.03;;;12.40;50.20;;;;;;5072738;28;20231;-75
2022/04/16 10:41:10;;;;;;;6.63;6.03;;;12.20;51.50;;;;;;5072787;28;20193;-74
2022/04/16 10:43:37;;;;;;;7.05;5.88;;;13.30;51.70;;;;;;5073110;28;20254;-75
2022/04/16 10:46:07;;;;;;;7.50;5.75;;;13.80;49.30;;;;;;5072892;28;20204;-75
2022/04/16 10:48:35;;;;;;;7.13;5.90;;;15.40;45.30;;;;;;5072547;28;20200;-75
2022/04/16 10:51:03;;;;;;;6.38;5.78;;;16.40;40.50;;;;;;5072567;28;20197;-75
2022/04/16 10:53:32;;;;;;;6.45;5.85;;;17.30;36.30;;;;;;5072605;28;20196;-75
2022/04/16 10:56:07;;;;;;;7.13;5.75;;;18.00;33.30;;;;;;5073118;28;20197;-75
2022/04/16 10:58:34;;;;;;;6.85;6.13;;;18.20;31.30;;;;;;5072655;28;20231;-75
2022/04/16 11:01:08;;;;;;;5.93;5.40;;;18.50;30.20;;;;;;5072867;28;20208;-77
2022/04/16 11:03:42;;;;;;;6.53;5.53;;;19.30;28.80;;;;;;5072722;28;20193;-75
2022/04/16 11:06:09;;;;;;;5.25;4.78;;;20.10;27.30;;;;;;5072418;28;20246;-75
2022/04/16 11:08:37;;;;;;;4.93;4.43;;;20.50;24.20;;;;;;5072438;28;20611;-76
2022/04/16 11:11:06;;;;;;;5.00;4.50;;;20.20;21.90;;;;;;5072696;28;20201;-76
2022/04/16 11:13:34;;;;;;;5.75;5.25;;;20.50;20.90;;;;;;5072262;28;20521;-76
2022/04/16 11:16:01;;;;;;;4.57;4.18;;;21.00;20.10;;;;;;5072496;28;20580;-75
2022/04/16 11:18:42;;;;;;;3.70;3.40;;;20.40;16.90;;;;;;5076203;28;20761;-76
2022/04/16 11:21:11;;;;;;;3.75;3.25;;;20.80;15.10;;;;;;5076236;28;20200;-76
2022/04/16 11:23:42;;;;;;;3.92;3.17;;;21.50;14.30;;;;;;5076454;28;20246;-76
2022/04/16 11:34:29;;;;;;;3.53;3.22;;;22.50;9.70;;;;;;5075968;28;20200;-75
2022/04/16 11:36:56;;;;;;;3.50;3.20;;;21.90;13.10;;;;;;5075710;28;20250;-76
2022/04/16 11:39:24;;;;;;;3.30;3.00;;;22.00;13.90;;;;;;5075804;28;20196;-76
2022/04/16 11:41:53;;;;;;;3.33;3.03;;;21.60;12.70;;;;;;5075662;28;20197;-76
2022/04/16 11:44:32;;;;;;;3.47;3.17;;;20.30;12.80;;;;;;5075888;28;20603;-75
2022/04/16 11:47:00;;;;;;;4.55;3.00;;;21.50;13.10;;;;;;5075762;28;20200;-74
2022/04/16 11:49:27;;;;;;;3.75;2.88;;;22.50;11.20;;;;;;5075656;28;20204;-76
2022/04/16 11:51:53;;;;;;;3.53;2.88;;;23.10;12.00;;;;;;5075678;28;20201;-75
2022/04/16 11:54:28;;;;;;;3.47;3.17;;;23.80;11.90;;;;;;5075560;28;20242;-75
2022/04/16 11:56:57;;;;;;;3.10;2.80;;;20.50;11.90;;;;;;5075665;28;20220;-76
2022/04/16 11:59:25;;;;;;;3.22;2.92;;;20.70;12.80;;;;;;5075515;28;20193;-76
2022/04/16 12:02:05;;;;;;;2.83;2.60;;;21.20;12.90;;;;;;5075366;28;20329;-76
2022/04/16 12:04:37;;;;;;;3.10;2.67;;;19.10;11.00;;;;;;5075073;28;20287;-76
2022/04/16 12:07:09;;;;;;;3.90;2.58;;;20.40;12.90;;;;;;5075346;28;20197;-75
2022/04/16 12:09:36;;;;;;;3.10;2.80;;;21.40;11.30;;;;;;5075458;28;20201;-76
2022/04/16 12:12:05;;;;;;;2.90;2.58;;;22.50;10.60;;;;;;5075581;28;20197;-76
2022/04/16 12:14:33;;;;;;;2.80;2.60;;;23.60;9.90;;;;;;5075693;28;20193;-76
2022/04/16 12:17:00;;;;;;;2.40;2.20;;;24.40;8.50;;;;;;5075787;28;20213;-76
2022/04/16 12:19:34;;;;;;;4.18;1.90;;;23.50;8.60;;;;;;5076638;28;20200;-76
2022/04/16 12:22:01;;;;;;;3.33;2.08;;;23.30;7.30;;;;;;5076807;28;20225;-76
2022/04/16 12:24:29;;;;;;;3.85;2.30;;;21.50;6.60;;;;;;5076681;28;20209;-76
2022/04/16 12:26:56;;;;;;;2.20;1.77;;;21.60;9.50;;;;;;5076188;28;20201;-74
2022/04/16 12:29:29;;;;;;;3.22;2.00;;;23.60;7.50;;;;;;5074226;28;20193;-75
2022/04/16 12:31:57;;;;;;;3.40;1.80;;;24.10;6.80;;;;;;5075057;28;20224;-76
2022/04/16 12:34:24;;;;;;;3.88;1.88;;;25.30;6.70;;;;;;5075327;28;20197;-76
2022/04/16 12:36:51;;;;;;;2.33;1.98;;;24.10;4.50;;;;;;5074908;28;20207;-76
2022/04/16 12:39:18;;;;;;;3.45;1.90;;;25.10;5.60;;;;;;5074969;28;20597;-76
2022/04/16 12:41:44;;;;;;;4.57;1.98;;;23.90;6.20;;;;;;5075191;28;20198;-75
2022/04/16 12:44:11;;;;;;;2.85;1.90;;;24.90;5.90;;;;;;5074825;28;20209;-75
2022/04/16 12:46:39;;;;;;;2.50;2.00;;;24.90;5.70;;;;;;5075277;28;20193;-75
2022/04/16 12:49:06;;;;;;;2.72;2.00;;;22.80;6.00;;;;;;5074829;28;20657;-75
2022/04/16 12:51:32;;;;;;;2.75;2.08;;;19.90;8.30;;;;;;5075167;28;20204;-75
2022/04/16 12:54:00;;;;;;;4.57;2.00;;;21.70;8.30;;;;;;5074613;28;20201;-75
2022/04/16 12:56:27;;;;;;;4.60;1.80;;;23.80;7.00;;;;;;5075061;28;20199;-75
2022/04/16 12:58:54;;;;;;;2.22;1.80;;;24.20;4.50;;;;;;5075029;28;20537;-75
2022/04/16 13:01:20;;;;;;;2.20;1.67;;;25.10;4.30;;;;;;5075352;28;20326;-76
2022/04/16 13:03:49;;;;;;;1.92;1.73;;;25.40;3.80;;;;;;5075107;28;20211;-76
2022/04/16 13:06:16;;;;;;;1.92;1.77;;;25.10;5.00;;;;;;5075097;28;20680;-75
2022/04/16 13:08:44;;;;;;;3.25;2.20;;;25.70;4.00;;;;;;5074298;28;20201;-75
2022/04/16 13:11:11;;;;;;;2.40;1.90;;;26.00;4.00;;;;;;5074578;28;20232;-76